Time;durP1;ratioP1;P1;durP2;ratioP2;P2;SDS_P1;SDS_P2;PMS_P1;PMS_P2;Temp;Humidity;BMP_temperature;BMP_pressure;BME280_temperature;BME280_humidity;BME280_pressure;Samples;Min_cycle;Max_cycle;Signal;HPM_P1;HPM_P2
2023/07/15 00:02:29;;;;;;;11.60;10.20;;;;;;;27.59;45.40;100641.28;5042111;28;66159;-43
2023/07/15 00:05:01;;;;;;;10.13;9.43;;;;;;;27.56;45.26;100630.91;5039737;28;70218;-43
2023/07/15 00:07:32;;;;;;;19.90;10.10;;;;;;;27.54;45.40;100634.84;5040528;28;66715;-43
2023/07/15 00:10:04;;;;;;;21.07;10.40;;;;;;;27.58;45.50;100655.81;5036739;28;69336;-44
2023/07/15 00:12:35;;;;;;;;;;;;;;;27.39;46.20;100659.28;5036380;28;66202;-42
2023/07/15 00:15:09;;;;;;;11.68;10.52;;;;;;;27.63;45.81;100657.88;5037093;28;70026;-43
2023/07/15 00:17:41;;;;;;;10.48;9.00;;;;;;;27.69;45.94;100661.63;5033971;28;66881;-42
2023/07/15 00:20:14;;;;;;;12.20;9.45;;;;;;;27.61;45.97;100659.97;5030257;28;70058;-42
2023/07/15 00:22:46;;;;;;;17.50;9.77;;;;;;;27.63;46.34;100674.88;5038512;28;65615;-43
2023/07/15 00:25:22;;;;;;;12.50;10.10;;;;;;;27.34;46.44;100642.88;5034987;28;70471;-44
2023/07/15 00:27:54;;;;;;;15.05;9.90;;;;;;;27.74;46.49;100683.41;5034892;28;66202;-43
2023/07/15 00:30:26;;;;;;;15.95;9.88;;;;;;;27.67;46.31;100701.44;5036388;28;69986;-44
2023/07/15 00:32:57;;;;;;;;;;;;;;;27.50;46.65;100695.56;5027992;28;66445;-42
2023/07/15 00:35:29;;;;;;;10.32;8.88;;;;;;;27.68;46.36;100697.69;5036288;28;69336;-47
2023/07/15 00:38:00;;;;;;;;;;;;;;;27.63;48.28;100703.69;5035943;28;65985;-44
2023/07/15 00:40:38;;;;;;;32.42;16.25;;;;;;;27.60;67.03;100610.59;5033758;28;69760;-44
2023/07/15 00:43:46;;;;;;;30.23;19.08;;;;;;;28.36;75.47;100709.25;5037231;28;66585;-43
2023/07/15 00:46:18;;;;;;;29.35;20.33;;;;;;;28.58;81.02;100703.63;5039685;28;70012;-42
2023/07/15 00:49:28;;;;;;;29.60;19.55;;;;;;;28.72;83.68;100710.69;5030462;28;65424;-42
2023/07/15 00:52:09;;;;;;;50.40;21.15;;;;;;;28.90;82.08;100702.75;5026657;28;70552;-41
2023/07/15 00:54:45;;;;;;;38.13;20.23;;;;;;;28.68;83.39;100659.00;5031537;28;66049;-42
2023/07/15 00:57:40;;;;;;;37.63;19.73;;;;;;;29.10;82.35;100707.31;5032608;28;71216;-41
2023/07/15 01:00:12;;;;;;;38.25;21.08;;;;;;;29.18;82.39;100704.38;5032776;28;66511;-42
2023/07/15 01:02:43;;;;;;;38.05;20.38;;;;;;;29.23;84.04;100718.09;5035716;28;70599;-41
2023/07/15 01:05:15;;;;;;;21.75;17.05;;;;;;;29.39;72.52;100712.22;5037190;28;66898;-43
2023/07/15 01:07:46;;;;;;;30.00;18.07;;;;;;;29.37;72.63;100700.78;5037089;28;70288;-42
2023/07/15 01:10:18;;;;;;;32.07;16.63;;;;;;;29.55;70.78;100710.03;5037714;28;64986;-42
2023/07/15 01:12:49;;;;;;;22.98;14.77;;;;;;;29.56;70.43;100706.28;5032681;28;70234;-42
2023/07/15 01:15:20;;;;;;;19.95;14.98;;;;;;;29.67;69.53;100713.78;5036869;28;66407;-42
2023/07/15 01:17:52;;;;;;;23.33;16.80;;;;;;;29.69;69.55;100708.97;5027661;28;69345;-43
2023/07/15 01:20:25;;;;;;;16.15;14.25;;;;;;;29.75;69.97;100710.78;5025751;28;65078;-43
2023/07/15 01:22:56;;;;;;;16.55;14.75;;;;;;;29.81;69.49;100717.22;5034257;28;69545;-41
2023/07/15 01:25:29;;;;;;;27.02;15.25;;;;;;;29.86;69.75;100716.56;5037291;28;66163;-41
2023/07/15 01:28:00;;;;;;;22.30;15.95;;;;;;;29.90;69.76;100712.41;5035503;28;69170;-42
2023/07/15 01:30:32;;;;;;;29.65;15.88;;;;;;;29.95;69.73;100716.09;5026176;28;65356;-41
2023/07/15 01:33:03;;;;;;;17.63;15.05;;;;;;;29.89;70.36;100699.91;5032343;28;70161;-42
2023/07/15 01:35:35;;;;;;;27.65;15.65;;;;;;;29.84;69.75;100690.59;5032580;28;65519;-41
2023/07/15 01:38:06;;;;;;;24.85;16.83;;;;;;;30.01;70.56;100695.47;5036285;28;70615;-41
2023/07/15 01:40:38;;;;;;;18.75;16.27;;;;;;;29.94;70.63;100681.97;5036259;28;66484;-42
2023/07/15 01:43:10;;;;;;;37.45;21.20;;;;;;;29.98;80.52;100714.84;5033685;28;70079;-41
2023/07/15 01:45:41;;;;;;;33.95;20.02;;;;;;;29.97;81.74;100705.06;5035657;28;65699;-44
2023/07/15 01:48:13;;;;;;;34.45;21.77;;;;;;;29.45;82.77;100617.78;5020525;28;69709;-42
2023/07/15 01:50:44;;;;;;;44.50;23.27;;;;;;;30.01;82.85;100701.69;5030021;28;66599;-42
2023/07/15 01:53:16;;;;;;;33.10;21.10;;;;;;;29.97;82.38;100695.06;5027948;28;70104;-40
2023/07/15 01:55:47;;;;;;;26.20;19.30;;;;;;;30.11;82.14;100703.09;5037579;28;66545;-42
2023/07/15 01:58:20;;;;;;;30.95;18.90;;;;;;;30.15;80.31;100699.72;5028386;28;69332;-41
2023/07/15 02:00:52;;;;;;;24.08;17.60;;;;;;;30.15;81.78;100697.03;5034249;28;66700;-42
2023/07/15 02:03:24;;;;;;;28.95;19.50;;;;;;;30.21;81.99;100698.03;5023169;28;70517;-42
2023/07/15 02:05:57;;;;;;;40.72;19.05;;;;;;;30.25;81.76;100696.56;5029803;28;65806;-42
2023/07/15 02:08:29;;;;;;;30.67;18.73;;;;;;;30.31;81.64;100692.13;5034610;28;70506;-41
2023/07/15 02:11:01;;;;;;;24.40;17.30;;;;;;;30.26;81.86;100687.41;5034582;28;66327;-42
2023/07/15 02:13:32;;;;;;;26.00;17.58;;;;;;;30.22;80.62;100662.66;5037646;28;68960;-43
2023/07/15 02:16:04;;;;;;;23.57;16.57;;;;;;;30.31;80.99;100671.31;5031437;28;66482;-43
2023/07/15 02:18:35;;;;;;;17.50;15.40;;;;;;;30.36;80.46;100679.59;5040724;28;70838;-44
2023/07/15 02:21:07;;;;;;;22.90;14.77;;;;;;;30.32;80.41;100667.56;5037723;28;66687;-41
2023/07/15 02:23:38;;;;;;;14.93;13.43;;;;;;;30.56;75.75;100673.16;5030682;28;69926;-43
2023/07/15 02:26:14;;;;;;;12.80;11.70;;;;;;;30.06;74.45;100582.00;5033953;28;66200;-42
2023/07/15 02:28:46;;;;;;;11.68;10.50;;;;;;;30.65;73.72;100671.84;5034084;28;70464;-43
2023/07/15 02:31:17;;;;;;;12.23;10.88;;;;;;;30.67;73.55;100667.88;5028296;28;66109;-43
2023/07/15 02:33:49;;;;;;;12.40;10.85;;;;;;;30.20;72.83;100578.16;5007571;28;69549;-43
2023/07/15 02:36:21;;;;;;;11.05;9.98;;;;;;;30.80;73.11;100674.22;5033477;28;65437;-42
2023/07/15 02:38:52;;;;;;;10.20;9.35;;;;;;;30.86;72.33;100678.72;5027911;28;70496;-42
2023/07/15 02:41:24;;;;;;;10.48;9.50;;;;;;;30.87;72.18;100669.53;5033842;28;65116;-44
2023/07/15 02:43:56;;;;;;;9.38;8.45;;;;;;;30.09;71.90;100527.50;5034459;28;70500;-43
2023/07/15 02:46:27;;;;;;;9.48;8.63;;;;;;;30.43;71.83;100572.13;5024676;28;66496;-43
2023/07/15 02:48:59;;;;;;;9.00;8.13;;;;;;;30.90;71.93;100655.56;5034977;28;70550;-43
2023/07/15 02:51:31;;;;;;;9.25;7.45;;;;;;;31.01;71.65;100659.38;5038329;28;65239;-43
2023/07/15 02:54:02;;;;;;;8.25;7.60;;;;;;;30.90;71.90;100632.03;5026214;28;70416;-43
2023/07/15 02:56:34;;;;;;;7.95;7.25;;;;;;;31.07;71.42;100659.31;5023276;28;65575;-43
2023/07/15 02:59:06;;;;;;;7.00;6.60;;;;;;;31.10;71.33;100653.44;5034396;28;70638;-44
2023/07/15 03:01:39;;;;;;;10.35;6.78;;;;;;;30.98;71.14;100644.44;5026745;28;66172;-43
2023/07/15 03:04:10;;;;;;;7.90;6.53;;;;;;;31.11;71.20;100651.56;5038812;28;70115;-44
2023/07/15 03:06:43;;;;;;;6.68;6.07;;;;;;;31.20;70.88;100652.06;5020112;28;66137;-43
2023/07/15 03:09:14;;;;;;;6.60;5.93;;;;;;;31.23;70.90;100657.88;5026183;28;70440;-42
2023/07/15 03:11:46;;;;;;;6.22;5.75;;;;;;;31.24;70.80;100637.03;5036751;28;64624;-43
2023/07/15 03:14:19;;;;;;;6.25;5.70;;;;;;;31.07;70.58;100602.44;5034379;28;70533;-44
2023/07/15 03:16:51;;;;;;;5.78;5.25;;;;;;;31.30;70.90;100636.09;5039579;28;65492;-43
2023/07/15 03:19:23;;;;;;;5.70;5.10;;;;;;;31.29;70.78;100624.44;5033568;28;69110;-43
2023/07/15 03:21:54;;;;;;;6.07;5.60;;;;;;;31.26;70.63;100607.78;5039226;28;65781;-43
2023/07/15 03:24:26;;;;;;;5.88;5.28;;;;;;;31.39;70.21;100621.19;5036571;28;70269;-43
2023/07/15 03:26:59;;;;;;;5.60;4.90;;;;;;;31.42;70.76;100628.88;5036538;28;66016;-44
2023/07/15 03:29:32;;;;;;;5.75;5.22;;;;;;;31.47;70.51;100617.34;5033325;28;69950;-44
2023/07/15 03:32:04;;;;;;;5.45;4.93;;;;;;;31.50;70.39;100623.13;5030107;28;65927;-43
2023/07/15 03:34:36;;;;;;;6.43;4.90;;;;;;;31.05;70.21;100542.22;5020578;28;70461;-43
2023/07/15 03:37:11;;;;;;;5.25;4.63;;;;;;;31.48;70.14;100605.44;5032327;28;66536;-44
2023/07/15 03:39:43;;;;;;;8.02;5.20;;;;;;;31.56;70.25;100614.06;5038048;28;70444;-44
2023/07/15 03:42:15;;;;;;;5.47;5.07;;;;;;;31.57;70.21;100599.47;5029567;28;66515;-44
2023/07/15 03:44:46;;;;;;;6.55;4.53;;;;;;;31.63;70.38;100624.81;5031679;28;70092;-43
2023/07/15 03:47:18;;;;;;;6.30;4.85;;;;;;;31.65;69.92;100606.44;5030902;28;66190;-43
2023/07/15 03:49:49;;;;;;;5.85;5.35;;;;;;;31.46;72.16;100613.00;5036406;28;69989;-43
2023/07/15 03:52:21;;;;;;;7.10;5.35;;;;;;;31.28;73.07;100611.09;5036304;28;65254;-50
2023/07/15 03:54:53;;;;;;;6.30;5.00;;;;;;;31.31;73.54;100616.06;5037339;28;70172;-42
2023/07/15 03:57:26;;;;;;;6.85;4.82;;;;;;;31.26;73.68;100621.34;5037724;28;65930;-44
2023/07/15 03:59:57;;;;;;;6.30;5.07;;;;;;;31.17;74.03;100599.16;5037826;28;70370;-44
2023/07/15 04:02:28;;;;;;;6.28;4.78;;;;;;;31.25;74.44;100612.38;5035652;28;66642;-45
2023/07/15 04:05:00;;;;;;;7.22;4.88;;;;;;;31.26;74.25;100608.66;5037444;28;70197;-44
2023/07/15 04:07:31;;;;;;;10.05;4.90;;;;;;;31.30;74.18;100609.00;5032851;28;65815;-43
2023/07/15 04:10:03;;;;;;;7.53;5.07;;;;;;;31.26;74.73;100599.66;5036742;28;69409;-43
2023/07/15 04:12:34;;;;;;;7.47;4.30;;;;;;;31.28;74.89;100600.28;5036841;28;65423;-43
2023/07/15 04:15:06;;;;;;;4.50;4.10;;;;;;;31.33;74.87;100600.41;5037014;28;69163;-43
2023/07/15 04:17:38;;;;;;;7.45;4.18;;;;;;;31.34;74.66;100588.50;5031977;28;65995;-43
2023/07/15 04:20:14;;;;;;;10.90;4.63;;;;;;;31.36;74.29;100591.84;5035490;28;69370;-43
2023/07/15 04:22:46;;;;;;;4.88;4.22;;;;;;;31.38;74.42;100578.91;5014203;28;67040;-45
2023/07/15 04:25:17;;;;;;;5.32;4.40;;;;;;;31.44;74.28;100585.28;5033988;28;69875;-42
2023/07/15 04:27:50;;;;;;;8.93;4.10;;;;;;;31.41;73.08;100578.44;5031976;28;66634;-43
2023/07/15 04:30:21;;;;;;;14.93;3.88;;;;;;;31.20;71.02;100577.03;5037038;28;69772;-44
2023/07/15 04:32:53;;;;;;;4.30;3.47;;;;;;;30.98;69.08;100557.75;5036732;28;66425;-43
2023/07/15 04:35:24;;;;;;;;;;;;;;;30.70;68.10;100566.38;5026763;28;69111;-43
2023/07/15 04:37:55;;;;;;;5.18;3.58;;;;;;;30.79;65.93;100564.22;5038457;28;65591;-43
2023/07/15 04:40:26;;;;;;;4.83;3.37;;;;;;;30.68;64.45;100547.69;5035556;28;70582;-43
2023/07/15 04:42:58;;;;;;;10.30;3.35;;;;;;;30.99;65.32;100553.97;5033357;28;66159;-45
2023/07/15 04:45:30;;;;;;;5.77;3.27;;;;;;;30.38;62.77;100479.13;5036094;28;70042;-45
2023/07/15 04:48:01;;;;;;;3.80;3.47;;;;;;;30.51;61.52;100476.28;5030722;28;66619;-45
2023/07/15 04:50:33;;;;;;;5.90;3.30;;;;;;;29.67;59.76;100351.56;5031387;28;69395;-45
2023/07/15 04:53:04;;;;;;;;;;;;;;;30.50;57.57;100547.69;5026402;28;66473;-44
2023/07/15 04:55:35;;;;;;;7.60;3.30;;;;;;;30.66;58.85;100528.13;5034320;28;70587;-44
2023/07/15 04:58:11;;;;;;;5.43;3.55;;;;;;;30.40;57.62;100474.31;5028165;28;66614;-43
2023/07/15 05:00:42;;;;;;;5.50;3.20;;;;;;;30.64;56.74;100519.38;5035035;28;70456;-44
2023/07/15 05:03:13;;;;;;;3.92;3.05;;;;;;;30.61;55.05;100541.50;5039073;28;65891;-44
2023/07/15 05:05:46;;;;;;;8.97;3.47;;;;;;;30.47;55.97;100502.13;5037441;28;68972;-43
2023/07/15 05:08:19;;;;;;;14.85;2.80;;;;;;;30.58;54.81;100520.31;5031906;28;66381;-44
2023/07/15 05:10:51;;;;;;;14.27;3.33;;;;;;;30.65;56.23;100521.06;5035275;28;70348;-44
2023/07/15 05:13:23;;;;;;;9.35;3.75;;;;;;;30.60;55.68;100512.78;5033283;28;66189;-45
2023/07/15 05:15:56;;;;;;;11.43;3.20;;;;;;;30.64;55.26;100510.44;5031823;28;70029;-44
2023/07/15 05:18:27;;;;;;;8.27;3.45;;;;;;;30.56;55.07;100506.16;5030134;28;65728;-44
2023/07/15 05:20:58;;;;;;;11.70;3.50;;;;;;;30.54;54.55;100502.06;5036893;28;69211;-43
2023/07/15 05:23:31;;;;;;;3.97;2.33;;;;;;;30.56;55.10;100495.34;5036143;28;66044;-44
2023/07/15 05:26:02;;;;;;;3.72;2.95;;;;;;;30.58;53.43;100493.22;5035603;28;70411;-43
2023/07/15 05:28:35;;;;;;;8.30;3.28;;;;;;;30.58;54.46;100482.41;5039328;28;66526;-44
2023/07/15 05:31:06;;;;;;;5.57;2.45;;;;;;;30.58;53.43;100477.00;5032840;28;69701;-43
2023/07/15 05:33:37;;;;;;;5.57;2.70;;;;;;;30.53;53.50;100451.66;5033024;28;66123;-44
2023/07/15 05:36:09;;;;;;;12.55;2.70;;;;;;;29.90;53.84;100341.94;5029697;28;70033;-45
2023/07/15 05:38:44;;;;;;;9.55;2.75;;;;;;;30.66;51.13;100478.56;5033403;28;67230;-45
2023/07/15 05:41:15;;;;;;;7.38;3.08;;;;;;;30.68;53.20;100461.03;5025659;28;69504;-43
2023/07/15 05:43:46;;;;;;;7.57;2.92;;;;;;;30.66;53.19;100473.97;5031062;28;66147;-44
2023/07/15 05:46:17;;;;;;;5.40;2.50;;;;;;;30.64;51.83;100454.41;5036722;28;69394;-45
2023/07/15 05:48:49;;;;;;;6.80;2.87;;;;;;;30.59;52.15;100446.19;5028305;28;65731;-46
2023/07/15 05:51:20;;;;;;;7.23;2.33;;;;;;;30.66;52.41;100454.19;5036871;28;70263;-45
2023/07/15 05:53:51;;;;;;;10.40;2.70;;;;;;;30.67;51.98;100448.56;5035574;28;64848;-44
2023/07/15 05:56:21;;;;;;;7.45;2.70;;;;;;;30.66;51.45;100456.91;5031786;28;70601;-44
2023/07/15 05:58:53;;;;;;;4.60;2.50;;;;;;;30.63;51.79;100455.47;5032622;28;65558;-45
2023/07/15 06:01:24;;;;;;;4.30;2.33;;;;;;;30.64;51.42;100442.78;5036002;28;68888;-44
2023/07/15 06:03:55;;;;;;;5.07;2.33;;;;;;;30.22;50.85;100389.38;5020577;28;66068;-44
2023/07/15 06:06:26;;;;;;;3.30;2.13;;;;;;;30.63;50.31;100450.06;5031168;28;70682;-45
2023/07/15 06:08:57;;;;;;;3.78;2.42;;;;;;;30.63;50.31;100444.66;5040096;28;67343;-46
2023/07/15 06:11:28;;;;;;;6.03;2.80;;;;;;;30.49;50.58;100405.28;5030488;28;70095;-45
2023/07/15 06:14:03;;;;;;;11.77;2.63;;;;;;;30.65;49.95;100439.84;5033609;28;65365;-45
2023/07/15 06:16:34;;;;;;;2.75;1.95;;;;;;;30.70;49.51;100437.28;5034430;28;70312;-45
2023/07/15 06:19:05;;;;;;;5.55;2.17;;;;;;;30.68;50.10;100433.97;5022971;28;65323;-45
2023/07/15 06:21:41;;;;;;;8.57;1.93;;;;;;;30.68;47.60;100428.56;5041972;28;68111;-45
2023/07/15 06:24:13;;;;;;;6.28;2.10;;;;;;;30.70;49.26;100426.44;5040359;28;66248;-45
2023/07/15 06:26:43;;;;;;;2.10;1.90;;;;;;;30.66;48.34;100419.81;5029907;28;70610;-45
2023/07/15 06:29:16;;;;;;;3.85;2.33;;;;;;;30.25;49.27;100336.72;5035254;28;66363;-46
2023/07/15 06:31:47;;;;;;;4.13;1.83;;;;;;;30.73;48.84;100398.91;5031523;28;70097;-47
2023/07/15 06:34:18;;;;;;;2.22;1.90;;;;;;;30.75;49.14;100395.97;5038026;28;67026;-45
2023/07/15 06:36:49;;;;;;;3.20;2.35;;;;;;;30.76;48.68;100377.81;5036757;28;70508;-45
2023/07/15 06:39:24;;;;;;;3.92;2.08;;;;;;;30.77;48.40;100385.72;5037451;28;65564;-44
2023/07/15 06:41:55;;;;;;;3.13;2.00;;;;;;;30.72;48.77;100356.63;5037361;28;69817;-45
2023/07/15 06:44:26;;;;;;;3.83;1.77;;;;;;;30.82;48.37;100363.41;5041698;28;65628;-44
2023/07/15 06:46:57;;;;;;;5.50;2.00;;;;;;;30.86;48.53;100380.84;5037446;28;70530;-44
2023/07/15 06:49:29;;;;;;;6.82;2.60;;;;;;;30.70;48.07;100338.97;5039181;28;66154;-46
2023/07/15 06:51:59;;;;;;;3.80;2.33;;;;;;;30.84;48.23;100358.56;5041340;28;70642;-45
2023/07/15 06:54:31;;;;;;;2.85;1.95;;;;;;;30.25;46.84;100261.78;5036017;28;67283;-44
2023/07/15 06:57:02;;;;;;;;;;;;;;;30.61;45.96;100362.84;5029928;28;70501;-44
2023/07/15 06:59:33;;;;;;;2.92;2.13;;;;;;;30.82;47.16;100358.81;5034518;28;66846;-43
2023/07/15 07:02:04;;;;;;;13.02;2.33;;;;;;;30.85;47.00;100357.53;5036477;28;69927;-43
2023/07/15 07:04:36;;;;;;;3.63;2.05;;;;;;;30.85;46.75;100360.25;5037555;28;66144;-44
2023/07/15 07:07:06;;;;;;;2.72;1.83;;;;;;;30.90;46.41;100354.94;5037183;28;70057;-44
2023/07/15 07:09:38;;;;;;;2.33;1.83;;;;;;;30.84;46.55;100331.50;5031913;28;66390;-44
2023/07/15 07:12:09;;;;;;;2.97;2.07;;;;;;;30.68;46.07;100303.19;5031251;28;69260;-43
2023/07/15 07:14:40;;;;;;;4.07;2.00;;;;;;;30.87;47.08;100333.72;5034381;28;66594;-43
2023/07/15 07:17:11;;;;;;;2.63;1.70;;;;;;;30.70;47.04;100296.50;5037776;28;70090;-43
2023/07/15 07:19:45;;;;;;;3.57;2.43;;;;;;;30.97;46.74;100327.75;5030773;28;65651;-44
2023/07/15 07:22:16;;;;;;;2.67;1.80;;;;;;;30.87;46.60;100301.22;5028482;28;70052;-44
2023/07/15 07:24:49;;;;;;;9.38;2.40;;;;;;;30.99;46.21;100318.34;5031001;28;66147;-45
2023/07/15 07:27:20;;;;;;;12.85;2.53;;;;;;;31.01;46.75;100324.34;5040687;28;70560;-42
2023/07/15 07:29:52;;;;;;;14.05;2.38;;;;;;;30.96;46.87;100321.50;5034152;28;66068;-41
2023/07/15 07:32:23;;;;;;;13.00;3.03;;;;;;;30.96;47.17;100316.09;5035855;28;69761;-42
2023/07/15 07:34:55;;;;;;;15.13;2.65;;;;;;;30.96;47.17;100326.13;5035687;28;66703;-43
2023/07/15 07:37:26;;;;;;;3.03;2.22;;;;;;;30.96;46.78;100321.50;5034861;28;69270;-43
2023/07/15 07:39:57;;;;;;;6.68;2.47;;;;;;;30.84;46.22;100290.88;5036183;28;65935;-41
2023/07/15 07:42:28;;;;;;;5.32;2.13;;;;;;;30.90;46.63;100319.75;5036319;28;71924;-43
2023/07/15 07:44:59;;;;;;;3.90;2.70;;;;;;;30.97;46.15;100312.31;5038321;28;65311;-43
2023/07/15 07:47:31;;;;;;;3.20;1.75;;;;;;;30.85;45.53;100292.53;5037944;28;69061;-42
2023/07/15 07:50:03;;;;;;;3.78;2.38;;;;;;;30.98;45.50;100313.97;5034453;28;65910;-43
2023/07/15 07:52:34;;;;;;;4.75;2.10;;;;;;;30.90;45.35;100307.03;5041042;28;69941;-43
2023/07/15 07:55:06;;;;;;;2.92;1.98;;;;;;;31.10;48.57;100273.34;5038387;28;66927;-51
2023/07/15 07:57:37;;;;;;;3.47;2.17;;;;;;;31.59;52.00;100303.69;5039360;28;69831;-43
2023/07/15 08:00:09;;;;;;;2.93;2.03;;;;;;;31.80;54.40;100296.81;5024794;28;65500;-43
2023/07/15 08:02:40;;;;;;;3.33;2.55;;;;;;;31.80;55.97;100262.38;5031669;28;69384;-43
2023/07/15 08:05:11;;;;;;;4.63;2.50;;;;;;;32.07;56.25;100283.56;5038711;28;66713;-44
2023/07/15 08:07:42;;;;;;;9.63;2.80;;;;;;;32.23;56.92;100281.91;5039388;28;69055;-42
2023/07/15 08:10:14;;;;;;;2.40;2.15;;;;;;;32.26;57.34;100271.41;5036203;28;67687;-43
2023/07/15 08:12:45;;;;;;;3.95;2.88;;;;;;;32.43;57.67;100276.88;5036591;28;70068;-44
2023/07/15 08:15:16;;;;;;;4.90;2.70;;;;;;;32.42;58.10;100271.66;5032358;28;66866;-43
2023/07/15 08:17:47;;;;;;;3.67;2.70;;;;;;;32.46;58.84;100276.41;5033642;28;70264;-45
2023/07/15 08:20:18;;;;;;;3.90;2.70;;;;;;;32.62;59.09;100273.94;5024384;28;66382;-44
2023/07/15 08:22:49;;;;;;;7.72;3.50;;;;;;;32.67;59.48;100276.72;5033055;28;70742;-42
2023/07/15 08:25:21;;;;;;;3.92;2.88;;;;;;;32.66;60.18;100254.19;5034651;28;66349;-42
2023/07/15 08:27:53;;;;;;;7.93;3.20;;;;;;;32.67;60.50;100244.16;5037808;28;70979;-43
2023/07/15 08:30:25;;;;;;;4.78;3.80;;;;;;;32.91;60.78;100275.50;5038876;28;65754;-42
2023/07/15 08:32:56;;;;;;;9.03;4.23;;;;;;;32.94;61.25;100266.03;5035320;28;70156;-42
2023/07/15 08:35:28;;;;;;;7.60;4.60;;;;;;;32.78;63.63;100251.38;5037833;28;65733;-42
2023/07/15 08:37:59;;;;;;;10.88;4.22;;;;;;;33.04;61.68;100273.53;5039385;28;70697;-41
2023/07/15 08:40:34;;;;;;;7.38;3.88;;;;;;;33.10;61.61;100272.53;5035948;28;66579;-42
2023/07/15 08:43:06;;;;;;;8.52;3.80;;;;;;;33.15;61.71;100281.59;5035015;28;70528;-43
2023/07/15 08:45:37;;;;;;;6.40;4.30;;;;;;;33.21;61.58;100278.91;5032319;28;66077;-43
2023/07/15 08:48:09;;;;;;;12.18;4.88;;;;;;;33.23;61.90;100287.66;5033662;28;69257;-42
2023/07/15 08:50:42;;;;;;;6.88;4.63;;;;;;;33.26;62.08;100292.59;5036643;28;67057;-42
2023/07/15 08:53:16;;;;;;;9.98;4.80;;;;;;;32.80;62.68;100216.66;5028190;28;69876;-43
2023/07/15 08:55:48;;;;;;;10.20;4.85;;;;;;;32.66;62.28;100188.19;5035583;28;65866;-43
2023/07/15 08:58:19;;;;;;;;;;;;;;;33.10;65.08;100291.56;5030682;28;70299;-42
2023/07/15 09:00:53;;;;;;;9.75;3.75;;;;;;;33.34;63.63;100301.13;5034634;28;66678;-44
2023/07/15 09:03:25;;;;;;;11.35;4.07;;;;;;;33.41;61.92;100292.00;5035710;28;69645;-42
2023/07/15 09:05:56;;;;;;;9.73;4.57;;;;;;;33.34;63.43;100303.03;5038327;28;65395;-42
2023/07/15 09:08:27;;;;;;;7.68;4.47;;;;;;;33.01;66.21;100295.75;5033591;28;69350;-42
2023/07/15 09:10:59;;;;;;;11.20;4.55;;;;;;;32.71;66.84;100291.47;5038146;28;66027;-43
2023/07/15 09:13:34;;;;;;;;;;;;;;;32.55;66.95;100295.81;5027251;28;70355;-42
2023/07/15 09:16:05;;;;;;;8.52;4.97;;;;;;;32.57;67.55;100280.13;5039493;28;66582;-42
2023/07/15 09:18:41;;;;;;;7.27;4.50;;;;;;;31.43;67.57;100102.00;5032122;28;70578;-42
2023/07/15 09:21:15;;;;;;;8.35;4.47;;;;;;;31.83;67.46;100174.28;5029733;28;64628;-43
2023/07/15 09:23:47;;;;;;;10.13;4.82;;;;;;;32.63;68.26;100302.75;5034310;28;69965;-42
2023/07/15 09:26:18;;;;;;;10.18;5.15;;;;;;;32.58;68.84;100306.19;5024908;28;65949;-43
2023/07/15 09:28:53;;;;;;;6.32;4.78;;;;;;;32.57;68.42;100303.72;5031281;28;70077;-43
2023/07/15 09:31:26;;;;;;;11.73;5.43;;;;;;;32.54;68.34;100298.78;5033741;28;66017;-42
2023/07/15 09:34:05;;;;;;;;;;;;;;;32.34;68.74;100304.66;5032313;28;69573;-43
2023/07/15 09:36:36;;;;;;;10.93;5.82;;;;;;;32.54;68.17;100304.19;5024888;28;65217;-42
2023/07/15 09:39:15;;;;;;;10.13;5.60;;;;;;;32.51;69.09;100307.41;5031483;28;69486;-42
2023/07/15 09:42:04;;;;;;;10.38;6.03;;;;;;;32.00;68.31;100196.88;5032758;28;66038;-43
2023/07/15 09:44:45;;;;;;;9.88;5.28;;;;;;;32.91;67.77;100304.56;5034079;28;69286;-43
2023/07/15 09:47:16;;;;;;;14.88;5.55;;;;;;;33.02;66.23;100303.66;5038142;28;65826;-44
2023/07/15 09:49:48;;;;;;;16.10;5.53;;;;;;;33.07;66.67;100311.06;5034767;28;69110;-42
2023/07/15 09:52:19;;;;;;;13.77;5.47;;;;;;;33.15;65.96;100319.63;5035644;28;64886;-42
2023/07/15 09:54:51;;;;;;;8.50;5.75;;;;;;;33.20;65.38;100324.31;5032948;28;70713;-43
2023/07/15 09:57:23;;;;;;;10.68;5.65;;;;;;;33.25;65.83;100327.09;5029309;28;66516;-42
2023/07/15 09:59:56;;;;;;;15.75;6.53;;;;;;;32.52;66.83;100208.63;5034199;28;69977;-43
2023/07/15 10:02:42;;;;;;;12.77;6.72;;;;;;;33.21;67.64;100342.28;5037828;28;65808;-43
2023/07/15 10:05:14;;;;;;;14.93;6.90;;;;;;;33.18;65.77;100312.84;5036626;28;69637;-44
2023/07/15 10:07:45;;;;;;;8.95;5.55;;;;;;;33.35;65.93;100331.88;5028382;28;66319;-44
2023/07/15 10:10:17;;;;;;;14.30;6.72;;;;;;;33.30;65.93;100324.47;5030384;28;70027;-43
2023/07/15 10:12:49;;;;;;;15.45;6.53;;;;;;;33.39;65.67;100338.44;5031823;28;65239;-43
2023/07/15 10:15:20;;;;;;;13.63;7.22;;;;;;;33.38;66.14;100343.06;5040788;28;69629;-44
2023/07/15 10:17:52;;;;;;;12.68;5.95;;;;;;;33.31;66.20;100326.09;5041095;28;66651;-44
2023/07/15 10:20:23;;;;;;;12.83;6.70;;;;;;;33.41;65.86;100346.38;5036821;28;70455;-43
2023/07/15 10:22:59;;;;;;;10.95;6.25;;;;;;;33.33;66.49;100345.72;5027837;28;66452;-43
2023/07/15 10:25:30;;;;;;;8.68;6.28;;;;;;;33.19;66.25;100325.38;5035472;28;70516;-43
2023/07/15 10:28:12;;;;;;;16.55;5.88;;;;;;;33.35;67.31;100348.19;5033110;28;65431;-43
2023/07/15 10:31:07;;;;;;;27.35;6.85;;;;;;;33.28;67.35;100353.78;5027213;28;70263;-44
2023/07/15 10:33:58;;;;;;;169.73;13.07;;;;;;;33.30;67.84;100357.09;5035492;28;65592;-47
2023/07/15 10:36:37;;;;;;;23.27;7.18;;;;;;;32.85;67.24;100278.38;5035364;28;70581;-42
2023/07/15 10:39:11;;;;;;;26.13;6.70;;;;;;;33.38;67.28;100359.38;5031320;28;66531;-43
2023/07/15 10:41:52;;;;;;;24.13;6.63;;;;;;;33.17;67.83;100335.69;5036078;28;69750;-42
2023/07/15 10:44:25;;;;;;;15.30;6.65;;;;;;;32.62;66.57;100244.06;5028353;28;66580;-43
2023/07/15 10:46:59;;;;;;;24.27;7.63;;;;;;;33.35;66.99;100365.31;5026717;28;69543;-43
2023/07/15 10:49:32;;;;;;;24.50;7.40;;;;;;;33.38;66.39;100372.16;5040913;28;66391;-43
2023/07/15 10:52:07;;;;;;;22.80;8.32;;;;;;;33.35;66.87;100372.66;5039580;28;70395;-44
2023/07/15 10:54:40;;;;;;;22.15;7.43;;;;;;;32.59;66.25;100248.09;5024075;28;66320;-45
2023/07/15 10:57:16;;;;;;;13.57;7.47;;;;;;;33.27;66.34;100360.31;5035683;28;69873;-42
2023/07/15 10:59:48;;;;;;;20.55;9.43;;;;;;;33.32;66.24;100378.56;5025419;28;66146;-44
2023/07/15 11:02:19;;;;;;;23.30;10.82;;;;;;;33.29;66.26;100379.91;5030752;28;69299;-45
2023/07/15 11:04:51;;;;;;;15.07;8.63;;;;;;;32.86;66.51;100313.44;5027583;28;66339;-44
2023/07/15 11:07:22;;;;;;;17.17;9.38;;;;;;;33.28;66.28;100375.53;5022506;28;69970;-44
2023/07/15 11:09:53;;;;;;;25.83;12.45;;;;;;;33.25;66.63;100381.47;5028074;28;66245;-44
2023/07/15 11:12:29;;;;;;;22.35;14.13;;;;;;;33.26;66.64;100388.53;5028002;28;69184;-45
2023/07/15 11:15:03;;;;;;;26.85;13.77;;;;;;;33.17;66.63;100367.47;5040747;28;66668;-44
2023/07/15 11:17:41;;;;;;;33.20;16.60;;;;;;;33.12;67.49;100370.94;5022743;28;69392;-43
2023/07/15 11:20:15;;;;;;;26.50;14.25;;;;;;;33.08;67.59;100361.63;5031870;28;65617;-45
2023/07/15 11:22:47;;;;;;;24.95;15.27;;;;;;;33.19;66.94;100382.47;5028159;28;70530;-46
2023/07/15 11:25:18;;;;;;;;;;;;;;;32.90;68.95;100377.09;5037856;28;66359;-45
2023/07/15 11:27:49;;;;;;;31.52;18.92;;;;;;;33.08;66.98;100359.75;5036903;28;69345;-44
2023/07/15 11:30:21;;;;;;;27.20;15.73;;;;;;;32.96;66.89;100337.25;5033875;28;65506;-43
2023/07/15 11:32:56;;;;;;;32.60;19.15;;;;;;;33.19;66.93;100377.03;5035204;28;70399;-45
2023/07/15 11:35:31;;;;;;;30.23;18.42;;;;;;;32.80;70.15;100379.63;5033518;28;65310;-44
2023/07/15 11:38:13;;;;;;;28.83;17.80;;;;;;;32.64;71.36;100385.84;5036716;28;70656;-45
2023/07/15 11:40:59;;;;;;;26.90;18.30;;;;;;;32.56;71.54;100372.66;5036971;28;65770;-44
2023/07/15 11:43:31;;;;;;;28.75;18.65;;;;;;;32.31;72.09;100338.53;5036959;28;69683;-46
2023/07/15 11:46:06;;;;;;;35.05;19.52;;;;;;;32.50;71.98;100369.03;5037656;28;65579;-45
2023/07/15 11:48:41;;;;;;;27.13;18.58;;;;;;;32.46;72.63;100368.72;5031325;28;70171;-45